Abraham Bay, Bahamas

7:19 AM EDT on October 20, 2014 (GMT -0400)
Providenciales International | Change Station
CLOSE
Current Station
Airport
Location: Providenciales,
Elevation: 16 ft
Nearby Weather Stations

Elev 16 ft 21.77 °N, 72.27 °W | Updated 19 minutes ago

Partly Cloudy
Partly Cloudy
79 °F
Feels Like 79 °F
N
6
Wind Variable Wind from ENE

Today
High -- | Low -- °F
--% Chance of Precip.
Yesterday
High -- | Low -- °F
Precip. -- in
6:50 AM 6:22 PM
Waning Crescent, 11% visible
Pressure 29.95 in
Visibility 6.2 miles
Clouds Few 1000 ft
Dew Point 72 °F
Humidity 78%
Rainfall 0.00 in
Snow Depth Not available.
UV 0 out of 12
Pollen Not available.
Air Quality Not available.
Flu Activity Not available.
METAR MBPV 201100Z 07005KT 9999 FEW010 26/22 Q1014

More Conditions Fewer Conditions

Pressure 29.95 in
Visibility 6.2 miles
Clouds Few 1000 ft
Dew Point 72 °F
Humidity 78%
Rainfall 0.00 in
Snow Depth Not available.
UV 0 out of 12
Pollen Not available.
Air Quality Not available.
Flu Activity Not available.
METAR MBPV 201100Z 07005KT 9999 FEW010 26/22 Q1014

More Conditions Fewer Conditions

10-Day Weather Forecast

Almanac

Astronomy

Oct. 20, 2014 Rise Set
Actual Time 6:50 AM EDT 6:22 PM EDT
Civil Twilight 6:27 AM EDT 6:45 PM EDT
Nautical Twilight 6:01 AM EDT 7:11 PM EDT
Astronomical Twilight 5:35 AM EDT 7:37 PM EDT
Moon 3:58 AM EDT 4:24 PM EDT
Length of Visible Light 12h 17m
Length of Day
11h 32m
Tomorrow will be 1m 12s shorter.
Waning Crescent, 11% of the Moon is Illuminated
Today
Waning Crescent
Oct 23
New
Oct 30
First Quarter
Nov 6
Full
Nov 14
Last Quarter

Yesterday's Extremes

Country Highs Country Lows

Community

WunderPhotos

Upload Photos

1,763,338 photos uploaded!

Nearby

Snow Depth

Not available.

Earthquake Activity

City Distance Mag. Time & Date
No recent earthquake activity has been reported nearby.
Minimum magnitude displayed is 2.5.

Coastal Water Temperatures

Place Temperature
No Stations Reporting

Nearby Weather Stations